Warning: Javascript must be enabled to use all the features on this page!


Page Loading - Please Wait...

Click to hideNews Bulletins

Peak Streamflow for the Nation

USGS 10336700 INCLINE CK NR CRYSTAL BAY, NV

Washoe County, Nevada
Hydrologic Unit Code 16050101
Latitude  39°14'25", Longitude 119°56'38" NAD27
Drainage area 6.74  square miles
Gage datum 6,246.90 feet above NGVD29
Output formats
Table
Graph
Tab-separated file
peakfq (watstore) format
Reselect output format
Water
Year
Date Gage
Height
(feet)
Stream-
flow
(cfs)
1970 1970-01-21 2.60 87.0
1971 1971-05-27 2.28 38.0
1972 1972-03-03 1.93 18.0
1973 1973-05-31 2.25 40.0
1975 1975-05-14 2.49 64.0
1988 1987-11-17 1.76 6.50
1989 1989-06-04 2.27 42.0
1990 1990-08-19 1.83 9.20
1991 1991-03-04 2.11 23.0
1992 1991-10-26 2.09 23.0
1993 1993-03-17 2.50 40.0
1994 1993-10-05 2.29 27.0
1995 1995-06-26 3.04 73.0
1996 1996-07-11 3.21 85.0
1997 1997-01-02 3.87 179
1998 1998-06-07 3.30 86.0
1999 1999-05-26 2.75 48.0
2000 2000-05-23 2.37 28.0
2001 2001-03-22 1.85 9.00
2002 2002-04-14 2.19 22.0
2003 2003-05-24 2.15 19.0
2004 2004-05-04 2.13 18.0
2005 2005-05-27 2.65 42.0
2006 2006-05-18 3.05 66.0
2007 2007-03-17 2.03 12.0
2008 2008-05-17 2.09 16.0
2009 2009-05-03 2.11 17.0
2010 2010-06-06 2.402 30.0
2011 2011-06-06 2.96 61.0
2012 2012-01-21 2.41 30.0
2013 2012-12-02 2.40 30.0
2014 2014-07-20 3.52 115
2015 2015-02-08 2.22 21.0
2016 2016-01-29 2.43 31.0
2017 2017-05-24 3.28 75.0
2018 2018-04-07 2.79 46.2
2019 2019-06-06 2.77 45.3
2020 2020-04-29 2.17 19.2
?
  Peak Gage-Height Qualification Codes.